Time;durP1;ratioP1;P1;durP2;ratioP2;P2;SDS_P1;SDS_P2;PMS_P1;PMS_P2;Temp;Humidity;BMP_temperature;BMP_pressure;BME280_temperature;BME280_humidity;BME280_pressure;Samples;Min_cycle;Max_cycle;Signal;HPM_P1;HPM_P2
2021/04/07 00:00:36;;;;;;;;;;;24.90;70.50;;;;;;4121817;28;19917;-43
2021/04/07 00:02:37;;;;;;;;;;;24.90;70.50;;;;;;4120871;28;19947;-44
2021/04/07 00:04:39;;;;;;;;;;;25.00;70.50;;;;;;4112047;28;19921;-42
2021/04/07 00:06:40;;;;;;;;;;;25.00;70.50;;;;;;4114255;28;19977;-44
2021/04/07 00:08:47;;;;;;;;;;;25.00;70.50;;;;;;4116560;28;19914;-44
2021/04/07 00:10:48;;;;;;;;;;;25.00;70.50;;;;;;4117041;28;20012;-43
2021/04/07 00:12:50;;;;;;;;;;;25.00;70.40;;;;;;4117564;28;19983;-44
2021/04/07 00:14:51;;;;;;;;;;;25.00;70.50;;;;;;4117298;28;19910;-43
2021/04/07 00:16:53;;;;;;;;;;;25.00;70.40;;;;;;4118893;28;19909;-45
2021/04/07 00:18:54;;;;;;;;;;;25.10;70.50;;;;;;4117143;28;20414;-46
2021/04/07 00:20:56;;;;;;;;;;;25.10;70.50;;;;;;4116099;28;19940;-44
2021/04/07 00:22:57;;;;;;;;;;;25.10;70.40;;;;;;4118485;28;20293;-47
2021/04/07 00:24:59;;;;;;;;;;;25.10;70.40;;;;;;4116482;28;19928;-45
2021/04/07 00:27:06;;;;;;;;;;;25.10;70.30;;;;;;4118561;28;19928;-43
2021/04/07 00:29:08;;;;;;;;;;;25.10;70.30;;;;;;4117890;28;19920;-43
2021/04/07 00:31:09;;;;;;;;;;;25.20;70.30;;;;;;4117073;28;19959;-43
2021/04/07 00:33:11;;;;;;;;;;;25.20;70.30;;;;;;4114550;28;19914;-45
2021/04/07 00:35:14;;;;;;;;;;;25.20;70.30;;;;;;4119730;28;19967;-42
2021/04/07 00:37:15;;;;;;;;;;;25.20;70.20;;;;;;4116148;28;20559;-45
2021/04/07 00:39:17;;;;;;;;;;;25.30;70.30;;;;;;4117688;28;20299;-43
2021/04/07 00:41:18;;;;;;;;;;;25.30;70.20;;;;;;4116626;28;19990;-43
2021/04/07 00:43:20;;;;;;;;;;;25.30;70.00;;;;;;4117571;28;19917;-42
2021/04/07 00:45:22;;;;;;;;;;;25.40;70.00;;;;;;4116999;28;19922;-45
2021/04/07 00:47:24;;;;;;;;;;;25.40;69.90;;;;;;4118229;28;19945;-42
2021/04/07 00:49:26;;;;;;;;;;;25.40;69.90;;;;;;4116063;28;20355;-42
2021/04/07 00:51:27;;;;;;;;;;;25.40;70.00;;;;;;4115897;28;19929;-44
2021/04/07 00:53:29;;;;;;;;;;;25.40;70.00;;;;;;4118686;28;20478;-46
2021/04/07 00:55:38;;;;;;;;;;;25.40;69.90;;;;;;4116841;28;20311;-46
2021/04/07 00:57:40;;;;;;;;;;;25.50;70.00;;;;;;4116000;28;19926;-44
2021/04/07 00:59:43;;;;;;;;;;;25.50;70.00;;;;;;4117724;28;19984;-43
2021/04/07 01:01:45;;;;;;;;;;;25.50;69.90;;;;;;4115747;28;19917;-45
2021/04/07 01:03:46;;;;;;;;;;;25.50;69.90;;;;;;4115798;28;20399;-46
2021/04/07 01:05:48;;;;;;;;;;;25.50;69.90;;;;;;4117094;28;20356;-44
2021/04/07 01:07:49;;;;;;;;;;;25.60;69.80;;;;;;4118920;28;19913;-44
2021/04/07 01:09:51;;;;;;;;;;;25.60;69.70;;;;;;4114182;28;19922;-45
2021/04/07 01:11:52;;;;;;;;;;;25.60;69.60;;;;;;4116349;28;19913;-46
2021/04/07 01:13:54;;;;;;;;;;;25.60;69.50;;;;;;4118270;28;19913;-43
2021/04/07 01:15:55;;;;;;;;;;;25.60;69.50;;;;;;4118714;28;19920;-47
2021/04/07 01:17:57;;;;;;;;;;;25.60;69.40;;;;;;4112392;28;19913;-50
2021/04/07 01:19:59;;;;;;;;;;;25.70;69.50;;;;;;4118243;28;19917;-43
2021/04/07 01:22:00;;;;;;;;;;;25.70;69.50;;;;;;4115405;28;19917;-46
2021/04/07 01:24:02;;;;;;;;;;;25.60;69.40;;;;;;4117231;28;20015;-50
2021/04/07 01:26:03;;;;;;;;;;;25.70;69.30;;;;;;4115504;28;20279;-47
2021/04/07 01:28:05;;;;;;;;;;;25.60;69.20;;;;;;4117392;28;19926;-47
2021/04/07 01:30:11;;;;;;;;;;;25.70;69.30;;;;;;4112994;28;19956;-46
2021/04/07 01:32:12;;;;;;;;;;;25.70;69.20;;;;;;4120389;28;19914;-43
2021/04/07 01:34:32;;;;;;;;;;;25.60;69.40;;;;;;4110665;28;19918;-43
2021/04/07 01:36:34;;;;;;;;;;;25.70;69.80;;;;;;4117881;28;20362;-43
2021/04/07 01:38:35;;;;;;;;;;;25.60;69.80;;;;;;4113491;28;20187;-43
2021/04/07 01:40:37;;;;;;;;;;;25.70;69.80;;;;;;4113295;28;19914;-46
2021/04/07 01:42:41;;;;;;;;;;;25.70;69.70;;;;;;4113288;28;19914;-43
2021/04/07 01:44:43;;;;;;;;;;;25.70;69.60;;;;;;4119298;28;20045;-47
2021/04/07 01:46:45;;;;;;;;;;;25.70;69.70;;;;;;4110232;28;19926;-44
2021/04/07 01:48:46;;;;;;;;;;;25.70;69.70;;;;;;4116274;28;20041;-43
2021/04/07 01:50:48;;;;;;;;;;;25.70;69.70;;;;;;4113580;28;20004;-42
2021/04/07 01:52:50;;;;;;;;;;;25.70;69.70;;;;;;4118026;28;19913;-43
2021/04/07 01:54:52;;;;;;;;;;;25.70;69.70;;;;;;4115902;28;19917;-43
2021/04/07 01:56:57;;;;;;;;;;;25.70;69.60;;;;;;4115678;28;20367;-44
2021/04/07 01:58:58;;;;;;;;;;;25.70;69.60;;;;;;4113691;28;19913;-49
2021/04/07 02:01:00;;;;;;;;;;;25.70;69.50;;;;;;4117097;28;19913;-44
2021/04/07 02:03:02;;;;;;;;;;;25.70;69.50;;;;;;4117695;28;20344;-46
2021/04/07 02:05:05;;;;;;;;;;;25.80;69.40;;;;;;4123089;28;19906;-42
2021/04/07 02:07:13;;;;;;;;;;;25.80;69.40;;;;;;4116578;28;19980;-46
2021/04/07 02:09:17;;;;;;;;;;;25.80;69.20;;;;;;4120167;28;20378;-46
2021/04/07 02:11:18;;;;;;;;;;;25.80;69.30;;;;;;4119014;28;20062;-45
2021/04/07 02:13:20;;;;;;;;;;;25.80;69.20;;;;;;4119790;28;20012;-44
2021/04/07 02:15:22;;;;;;;;;;;25.80;69.20;;;;;;4116512;28;20386;-48
2021/04/07 02:17:23;;;;;;;;;;;25.80;69.20;;;;;;4119699;28;19912;-44
2021/04/07 02:19:26;;;;;;;;;;;25.80;69.10;;;;;;4116062;28;20019;-45
2021/04/07 02:21:27;;;;;;;;;;;25.80;69.20;;;;;;4120897;28;19917;-46
2021/04/07 02:23:28;;;;;;;;;;;25.80;69.20;;;;;;4119856;28;20134;-44
2021/04/07 02:25:30;;;;;;;;;;;25.80;69.30;;;;;;4113979;28;20029;-45
2021/04/07 02:27:32;;;;;;;;;;;25.80;69.30;;;;;;4108134;28;20067;-44
2021/04/07 02:29:33;;;;;;;;;;;25.90;69.50;;;;;;4113404;28;19914;-45
2021/04/07 02:31:35;;;;;;;;;;;25.90;69.40;;;;;;4112183;28;19918;-44
2021/04/07 02:33:36;;;;;;;;;;;25.80;69.40;;;;;;4116407;28;19957;-44
2021/04/07 02:35:37;;;;;;;;;;;25.90;69.50;;;;;;4112466;28;19984;-47
2021/04/07 02:37:39;;;;;;;;;;;25.90;69.50;;;;;;4112540;28;20427;-46
2021/04/07 02:39:41;;;;;;;;;;;25.80;69.40;;;;;;4113892;28;20323;-43
2021/04/07 02:41:43;;;;;;;;;;;25.90;69.60;;;;;;4117119;28;19981;-46
2021/04/07 02:43:44;;;;;;;;;;;25.90;69.70;;;;;;4114518;28;20100;-46
2021/04/07 02:45:46;;;;;;;;;;;25.90;69.70;;;;;;4118960;28;19941;-46
2021/04/07 02:47:47;;;;;;;;;;;25.90;69.60;;;;;;4117004;28;20318;-51
2021/04/07 02:49:48;;;;;;;;;;;25.90;69.40;;;;;;4120715;28;19914;-44
2021/04/07 02:51:54;;;;;;;;;;;25.90;69.30;;;;;;4113531;28;20016;-45
2021/04/07 02:53:56;;;;;;;;;;;25.90;69.30;;;;;;4119366;28;19953;-43
2021/04/07 02:55:57;;;;;;;;;;;25.90;69.30;;;;;;4117093;28;19913;-44
2021/04/07 02:57:59;;;;;;;;;;;25.90;69.20;;;;;;4117149;28;20367;-43
2021/04/07 03:00:00;;;;;;;;;;;25.90;69.30;;;;;;4118283;28;19918;-43
2021/04/07 03:02:05;;;;;;;;;;;25.90;69.40;;;;;;4119123;28;19921;-45
2021/04/07 03:04:07;;;;;;;;;;;25.90;69.40;;;;;;4114192;28;21361;-45
2021/04/07 03:06:08;;;;;;;;;;;25.90;69.60;;;;;;4116374;28;20307;-46
2021/04/07 03:08:10;;;;;;;;;;;26.00;69.50;;;;;;4121079;28;20444;-47
2021/04/07 03:10:12;;;;;;;;;;;26.00;69.50;;;;;;4113258;28;20315;-44
2021/04/07 03:12:13;;;;;;;;;;;26.00;69.40;;;;;;4117211;28;19924;-49
2021/04/07 03:14:15;;;;;;;;;;;26.00;69.20;;;;;;4120847;28;19910;-47
2021/04/07 03:16:16;;;;;;;;;;;26.00;69.20;;;;;;4116171;28;20052;-49
2021/04/07 03:18:18;;;;;;;;;;;26.00;69.10;;;;;;4118663;28;20395;-48
2021/04/07 03:20:19;;;;;;;;;;;26.00;69.10;;;;;;4117082;28;19918;-44
2021/04/07 03:22:20;;;;;;;;;;;26.00;69.10;;;;;;4121013;28;19917;-47
2021/04/07 03:24:22;;;;;;;;;;;26.00;69.10;;;;;;4117927;28;20335;-45
2021/04/07 03:26:23;;;;;;;;;;;26.00;69.10;;;;;;4119537;28;20442;-45
2021/04/07 03:28:28;;;;;;;;;;;26.00;69.10;;;;;;4123156;28;20015;-44
2021/04/07 03:30:48;;;;;;;;;;;26.00;69.00;;;;;;4110499;28;20022;-46
2021/04/07 03:32:49;;;;;;;;;;;26.10;69.10;;;;;;4109943;28;19914;-43
2021/04/07 03:34:51;;;;;;;;;;;26.00;69.10;;;;;;4117274;28;19989;-45
2021/04/07 03:36:52;;;;;;;;;;;26.00;69.10;;;;;;4116496;28;19922;-44
2021/04/07 03:38:54;;;;;;;;;;;26.00;69.10;;;;;;4121469;28;20353;-47
2021/04/07 03:40:55;;;;;;;;;;;26.00;69.20;;;;;;4113322;28;19956;-45
2021/04/07 03:42:57;;;;;;;;;;;26.00;69.20;;;;;;4116774;28;19917;-52
2021/04/07 03:44:58;;;;;;;;;;;26.00;69.40;;;;;;4116773;28;19921;-48
2021/04/07 03:47:00;;;;;;;;;;;26.00;69.40;;;;;;4111749;28;20411;-44
2021/04/07 03:49:02;;;;;;;;;;;26.00;69.50;;;;;;4112227;28;20490;-49
2021/04/07 03:51:04;;;;;;;;;;;26.10;69.60;;;;;;4108324;28;20446;-43
2021/04/07 03:53:06;;;;;;;;;;;26.10;69.50;;;;;;4114717;28;20000;-48
2021/04/07 03:55:09;;;;;;;;;;;26.10;69.50;;;;;;4108954;28;20461;-42
2021/04/07 03:57:11;;;;;;;;;;;26.10;69.50;;;;;;4108915;28;19964;-50
2021/04/07 03:59:12;;;;;;;;;;;26.10;69.40;;;;;;4113819;28;19971;-48
2021/04/07 04:01:14;;;;;;;;;;;26.10;69.30;;;;;;4105928;28;19918;-43
2021/04/07 04:03:15;;;;;;;;;;;26.20;69.50;;;;;;4109170;28;20343;-43
2021/04/07 04:05:17;;;;;;;;;;;26.20;69.50;;;;;;4111924;28;19909;-43
2021/04/07 04:07:18;;;;;;;;;;;26.20;69.50;;;;;;4112090;28;19988;-46
2021/04/07 04:09:20;;;;;;;;;;;26.20;69.60;;;;;;4110198;28;19971;-43
2021/04/07 04:11:22;;;;;;;;;;;26.20;69.60;;;;;;4112940;28;20000;-44
2021/04/07 04:13:23;;;;;;;;;;;26.20;69.60;;;;;;4111297;28;19918;-42
2021/04/07 04:15:25;;;;;;;;;;;26.30;69.50;;;;;;4107920;28;20278;-48
2021/04/07 04:17:26;;;;;;;;;;;26.30;69.50;;;;;;4112132;28;20318;-44
2021/04/07 04:19:28;;;;;;;;;;;26.30;69.60;;;;;;4109249;28;20240;-44
2021/04/07 04:21:29;;;;;;;;;;;26.30;69.50;;;;;;4112881;28;20404;-45
2021/04/07 04:23:31;;;;;;;;;;;26.30;69.40;;;;;;4109228;28;20077;-43
2021/04/07 04:25:32;;;;;;;;;;;26.30;69.50;;;;;;4112088;28;19917;-45
2021/04/07 04:27:34;;;;;;;;;;;26.30;69.40;;;;;;4106147;28;19975;-43
2021/04/07 04:29:36;;;;;;;;;;;26.30;69.40;;;;;;4113255;28;19913;-45
2021/04/07 04:31:37;;;;;;;;;;;26.30;69.50;;;;;;4106688;28;20328;-43
2021/04/07 04:33:39;;;;;;;;;;;26.30;69.50;;;;;;4105372;28;19944;-42
2021/04/07 04:35:40;;;;;;;;;;;26.30;69.40;;;;;;4109595;28;19933;-42
2021/04/07 04:37:42;;;;;;;;;;;26.40;69.50;;;;;;4103532;28;20504;-44
2021/04/07 04:39:43;;;;;;;;;;;26.40;69.60;;;;;;4112060;28;20411;-43
2021/04/07 04:41:45;;;;;;;;;;;26.40;69.50;;;;;;4109667;28;19961;-44
2021/04/07 04:43:46;;;;;;;;;;;26.40;69.40;;;;;;4110840;28;19922;-46
2021/04/07 04:45:48;;;;;;;;;;;26.40;69.50;;;;;;4107424;28;20024;-44
2021/04/07 04:47:49;;;;;;;;;;;26.40;69.40;;;;;;4110431;28;20378;-45
2021/04/07 04:49:51;;;;;;;;;;;26.40;69.40;;;;;;4112275;28;19956;-46
2021/04/07 04:51:53;;;;;;;;;;;26.50;69.30;;;;;;4107981;28;20332;-44
2021/04/07 04:53:54;;;;;;;;;;;26.60;69.30;;;;;;4104103;28;20534;-45
2021/04/07 04:55:56;;;;;;;;;;;26.70;69.20;;;;;;4103829;28;19914;-47
2021/04/07 04:57:57;;;;;;;;;;;26.80;69.00;;;;;;4110474;28;19917;-45
2021/04/07 04:59:59;;;;;;;;;;;26.90;68.70;;;;;;4110510;28;20108;-44
2021/04/07 05:02:00;;;;;;;;;;;26.90;68.40;;;;;;4111600;28;20066;-45
2021/04/07 05:04:05;;;;;;;;;;;27.00;68.30;;;;;;4111699;28;19933;-46
2021/04/07 05:06:06;;;;;;;;;;;27.00;68.20;;;;;;4105795;28;20072;-43
2021/04/07 05:08:08;;;;;;;;;;;27.10;68.30;;;;;;4110092;28;19913;-46
2021/04/07 05:10:10;;;;;;;;;;;27.10;68.10;;;;;;4099478;28;19918;-47
2021/04/07 05:12:11;;;;;;;;;;;27.00;68.10;;;;;;4109647;28;21498;-46
2021/04/07 05:14:13;;;;;;;;;;;27.10;68.30;;;;;;4111466;28;19921;-44
2021/04/07 05:16:15;;;;;;;;;;;27.10;68.10;;;;;;4110733;28;19949;-48
2021/04/07 05:18:17;;;;;;;;;;;27.10;68.20;;;;;;4102916;28;20557;-46
2021/04/07 05:20:19;;;;;;;;;;;27.10;68.30;;;;;;4108949;28;19918;-44
2021/04/07 05:22:20;;;;;;;;;;;27.20;68.30;;;;;;4109002;28;19913;-44
2021/04/07 05:24:22;;;;;;;;;;;27.20;68.30;;;;;;4110143;28;20383;-47
2021/04/07 05:26:23;;;;;;;;;;;27.20;68.50;;;;;;4101480;28;20395;-47
2021/04/07 05:28:25;;;;;;;;;;;27.30;68.50;;;;;;4109265;28;19971;-43
2021/04/07 05:30:26;;;;;;;;;;;27.30;68.60;;;;;;4110943;28;19918;-46
2021/04/07 05:32:28;;;;;;;;;;;27.40;68.50;;;;;;4115611;28;19960;-43
2021/04/07 05:34:30;;;;;;;;;;;27.40;68.40;;;;;;4110397;28;19917;-42
2021/04/07 05:36:32;;;;;;;;;;;27.40;67.50;;;;;;4114477;28;19940;-44
2021/04/07 05:38:33;;;;;;;;;;;27.40;66.90;;;;;;4110610;28;20303;-43
2021/04/07 05:40:35;;;;;;;;;;;27.40;67.10;;;;;;4113053;28;19914;-46
2021/04/07 05:42:36;;;;;;;;;;;27.40;67.20;;;;;;4108594;28;20607;-49
2021/04/07 05:44:38;;;;;;;;;;;27.40;67.60;;;;;;4114777;28;20056;-45
2021/04/07 05:46:39;;;;;;;;;;;27.50;67.50;;;;;;4114633;28;20001;-46
2021/04/07 05:48:41;;;;;;;;;;;27.40;67.20;;;;;;4111660;28;19940;-44
2021/04/07 05:50:43;;;;;;;;;;;27.50;67.20;;;;;;4115688;28;20269;-48
2021/04/07 05:52:48;;;;;;;;;;;27.50;67.40;;;;;;4108387;28;19914;-42
2021/04/07 05:54:50;;;;;;;;;;;27.50;67.40;;;;;;4106200;28;19937;-47
2021/04/07 05:56:51;;;;;;;;;;;27.50;67.00;;;;;;4106875;28;19914;-42
2021/04/07 05:58:53;;;;;;;;;;;27.50;66.90;;;;;;4107436;28;19909;-46
2021/04/07 06:00:54;;;;;;;;;;;27.50;67.10;;;;;;4109554;28;19964;-47
2021/04/07 06:02:57;;;;;;;;;;;27.60;67.30;;;;;;4102920;28;20024;-43
2021/04/07 06:04:58;;;;;;;;;;;27.50;67.40;;;;;;4110696;28;19917;-45
2021/04/07 06:07:00;;;;;;;;;;;27.50;67.50;;;;;;4107812;28;19926;-44
2021/04/07 06:09:01;;;;;;;;;;;27.50;67.80;;;;;;4107062;28;20000;-43
2021/04/07 06:11:03;;;;;;;;;;;27.50;67.90;;;;;;4108486;28;19986;-45
2021/04/07 06:13:04;;;;;;;;;;;27.50;67.80;;;;;;4106727;28;19953;-42
2021/04/07 06:15:06;;;;;;;;;;;27.50;67.90;;;;;;4111139;28;19917;-42
2021/04/07 06:17:08;;;;;;;;;;;27.50;68.10;;;;;;4109142;28;19909;-43
2021/04/07 06:19:09;;;;;;;;;;;27.50;68.20;;;;;;4100192;28;19956;-45
2021/04/07 06:21:11;;;;;;;;;;;27.50;68.40;;;;;;4109477;28;21266;-44
2021/04/07 06:23:14;;;;;;;;;;;27.50;68.40;;;;;;4107858;28;19917;-44
2021/04/07 06:25:16;;;;;;;;;;;27.50;68.50;;;;;;4111197;28;20009;-43
2021/04/07 06:27:17;;;;;;;;;;;27.50;68.60;;;;;;4100073;28;19932;-45
2021/04/07 06:29:19;;;;;;;;;;;27.50;68.70;;;;;;4106884;28;20024;-43
2021/04/07 06:31:20;;;;;;;;;;;27.40;68.70;;;;;;4109090;28;20264;-45
2021/04/07 06:33:26;;;;;;;;;;;27.40;68.60;;;;;;4109026;28;19924;-46
2021/04/07 06:35:27;;;;;;;;;;;27.40;68.70;;;;;;4106452;28;20684;-45
2021/04/07 06:37:29;;;;;;;;;;;27.40;68.70;;;;;;4109867;28;19961;-45
2021/04/07 06:39:30;;;;;;;;;;;27.40;68.70;;;;;;4106745;28;19933;-44
2021/04/07 06:41:32;;;;;;;;;;;27.40;68.80;;;;;;4108369;28;19926;-43
2021/04/07 06:43:34;;;;;;;;;;;27.40;68.60;;;;;;4101175;28;20292;-44
2021/04/07 06:45:39;;;;;;;;;;;27.40;68.60;;;;;;4108086;28;19921;-44
2021/04/07 06:47:41;;;;;;;;;;;27.40;68.80;;;;;;4110162;28;19926;-44
2021/04/07 06:49:43;;;;;;;;;;;27.40;68.70;;;;;;4108006;28;19973;-41
2021/04/07 06:51:44;;;;;;;;;;;27.30;68.60;;;;;;4109456;28;19980;-43
2021/04/07 06:53:49;;;;;;;;;;;27.30;68.60;;;;;;4109923;28;19914;-44
2021/04/07 06:55:51;;;;;;;;;;;27.30;68.70;;;;;;4112238;28;19961;-42
2021/04/07 06:57:56;;;;;;;;;;;27.30;68.70;;;;;;4109360;28;19917;-43
2021/04/07 06:59:57;;;;;;;;;;;27.30;68.70;;;;;;4108148;28;19992;-43
2021/04/07 07:01:58;;;;;;;;;;;27.30;68.70;;;;;;4107463;28;20473;-42
2021/04/07 07:04:00;;;;;;;;;;;27.30;68.70;;;;;;4108673;28;19918;-43
2021/04/07 07:06:01;;;;;;;;;;;27.30;68.60;;;;;;4111213;28;19924;-46
2021/04/07 07:08:07;;;;;;;;;;;27.30;68.90;;;;;;4107839;28;20035;-43
2021/04/07 07:10:08;;;;;;;;;;;27.30;68.50;;;;;;4111874;28;19975;-44
2021/04/07 07:12:10;;;;;;;;;;;27.30;68.60;;;;;;4114090;28;19969;-42
2021/04/07 07:14:13;;;;;;;;;;;27.30;68.80;;;;;;4118304;28;19922;-43
2021/04/07 07:16:25;;;;;;;;;;;27.30;68.80;;;;;;4119138;28;19922;-44
2021/04/07 07:18:27;;;;;;;;;;;27.20;68.90;;;;;;4116489;28;20044;-42
2021/04/07 07:20:30;;;;;;;;;;;27.30;68.90;;;;;;4118201;28;20574;-44
2021/04/07 07:22:31;;;;;;;;;;;27.30;68.80;;;;;;4116697;28;20398;-45
2021/04/07 07:24:37;;;;;;;;;;;27.30;68.80;;;;;;4114545;28;19918;-46
2021/04/07 07:26:40;;;;;;;;;;;27.30;68.80;;;;;;4107000;28;19941;-44
2021/04/07 07:28:45;;;;;;;;;;;27.30;68.90;;;;;;4113322;28;20287;-43
2021/04/07 07:30:47;;;;;;;;;;;27.20;68.90;;;;;;4114213;28;19918;-43
2021/04/07 07:32:48;;;;;;;;;;;27.20;69.00;;;;;;4113436;28;19914;-42
2021/04/07 07:34:50;;;;;;;;;;;27.20;69.10;;;;;;4113910;28;19909;-44
2021/04/07 07:36:51;;;;;;;;;;;27.20;69.10;;;;;;4109863;28;20016;-42
2021/04/07 07:38:56;;;;;;;;;;;27.30;69.20;;;;;;4112651;28;19932;-43
2021/04/07 07:41:02;;;;;;;;;;;27.20;69.00;;;;;;4109655;28;20338;-42
2021/04/07 07:43:04;;;;;;;;;;;27.20;69.00;;;;;;4114482;28;20366;-41
2021/04/07 07:45:06;;;;;;;;;;;27.20;69.20;;;;;;4114471;28;20441;-43
2021/04/07 07:47:24;;;;;;;;;;;27.20;69.30;;;;;;4110423;28;19921;-43
2021/04/07 07:49:25;;;;;;;;;;;27.20;69.30;;;;;;4113105;28;19925;-42
2021/04/07 07:51:27;;;;;;;;;;;27.20;69.50;;;;;;4113750;28;20338;-45
2021/04/07 07:53:28;;;;;;;;;;;27.20;69.60;;;;;;4106388;28;19910;-43
2021/04/07 07:55:37;;;;;;;;;;;27.20;69.60;;;;;;4111560;28;20326;-46
2021/04/07 07:57:39;;;;;;;;;;;27.20;69.70;;;;;;4113121;28;19921;-42
2021/04/07 07:59:40;;;;;;;;;;;27.20;69.70;;;;;;4112692;28;20334;-42
2021/04/07 08:01:46;;;;;;;;;;;27.10;69.70;;;;;;4114327;28;20227;-42
2021/04/07 08:03:48;;;;;;;;;;;27.20;69.50;;;;;;4111050;28;19922;-46
2021/04/07 08:05:49;;;;;;;;;;;27.20;69.40;;;;;;4111807;28;20040;-43
2021/04/07 08:07:52;;;;;;;;;;;27.10;69.30;;;;;;4113940;28;20537;-42
2021/04/07 08:09:54;;;;;;;;;;;27.10;69.50;;;;;;4114176;28;20016;-42
2021/04/07 08:11:56;;;;;;;;;;;27.20;69.60;;;;;;4112151;28;19988;-41
2021/04/07 08:13:59;;;;;;;;;;;27.20;69.40;;;;;;4118124;28;19924;-43
2021/04/07 08:16:01;;;;;;;;;;;27.20;69.40;;;;;;4113760;28;19929;-41
2021/04/07 08:18:02;;;;;;;;;;;27.20;69.30;;;;;;4116583;28;19952;-51
2021/04/07 08:20:05;;;;;;;;;;;27.20;69.30;;;;;;4133276;28;19917;-47
2021/04/07 08:22:08;;;;;;;;;;;27.20;69.40;;;;;;4131465;28;19961;-48
2021/04/07 08:24:11;;;;;;;;;;;27.20;69.40;;;;;;4127966;28;19925;-44
2021/04/07 08:26:15;;;;;;;;;;;27.20;69.40;;;;;;4122902;28;19921;-43
2021/04/07 08:28:17;;;;;;;;;;;27.20;69.40;;;;;;4118847;28;19917;-42
2021/04/07 08:30:19;;;;;;;;;;;27.20;69.50;;;;;;4114522;28;19917;-44
2021/04/07 08:32:21;;;;;;;;;;;27.20;69.50;;;;;;4118490;28;20320;-46
2021/04/07 08:34:23;;;;;;;;;;;27.20;69.50;;;;;;4117612;28;20439;-45
2021/04/07 08:36:30;;;;;;;;;;;27.20;69.60;;;;;;4115871;28;20510;-42
2021/04/07 08:38:32;;;;;;;;;;;27.20;69.60;;;;;;4118622;28;19910;-42
2021/04/07 08:40:38;;;;;;;;;;;27.10;69.60;;;;;;4114790;28;19914;-44
2021/04/07 08:42:40;;;;;;;;;;;27.10;69.80;;;;;;4117036;28;19918;-43
2021/04/07 08:44:46;;;;;;;;;;;27.10;70.00;;;;;;4115232;28;19945;-45
2021/04/07 08:46:50;;;;;;;;;;;27.10;69.80;;;;;;4116114;28;19932;-42
2021/04/07 08:48:52;;;;;;;;;;;27.10;69.70;;;;;;4117283;28;19922;-42
2021/04/07 08:51:05;;;;;;;;;;;27.10;69.70;;;;;;4113957;28;19914;-46
2021/04/07 08:53:13;;;;;;;;;;;27.10;69.80;;;;;;4114891;28;19917;-46
2021/04/07 08:55:14;;;;;;;;;;;27.10;69.50;;;;;;4115989;28;20457;-46
2021/04/07 08:57:32;;;;;;;;;;;27.10;69.60;;;;;;4114083;28;20299;-51
2021/04/07 08:59:34;;;;;;;;;;;27.10;69.60;;;;;;4116220;28;20020;-44
2021/04/07 09:01:37;;;;;;;;;;;27.10;69.60;;;;;;4117191;28;19918;-44
2021/04/07 09:03:42;;;;;;;;;;;27.10;69.60;;;;;;4112315;28;19926;-47
2021/04/07 09:05:45;;;;;;;;;;;27.10;69.50;;;;;;4116440;28;20003;-45
2021/04/07 09:07:47;;;;;;;;;;;27.10;69.50;;;;;;4109557;28;19979;-46
2021/04/07 09:09:54;;;;;;;;;;;27.10;69.50;;;;;;4113857;28;19925;-47
2021/04/07 09:11:55;;;;;;;;;;;27.10;69.40;;;;;;4113025;28;20114;-44
2021/04/07 09:14:02;;;;;;;;;;;27.10;68.20;;;;;;4114598;28;19913;-42
2021/04/07 09:16:05;;;;;;;;;;;27.00;68.00;;;;;;4113860;28;20288;-44
2021/04/07 09:18:07;;;;;;;;;;;26.90;67.70;;;;;;4114479;28;20470;-43
2021/04/07 09:20:09;;;;;;;;;;;26.90;67.60;;;;;;4113612;28;19913;-45
2021/04/07 09:22:11;;;;;;;;;;;26.90;67.90;;;;;;4113144;28;19917;-47
2021/04/07 09:24:17;;;;;;;;;;;26.80;68.30;;;;;;4111583;28;19918;-47
2021/04/07 09:26:22;;;;;;;;;;;26.80;68.50;;;;;;4115622;28;20334;-47
2021/04/07 09:28:30;;;;;;;;;;;26.90;68.70;;;;;;4110068;28;19918;-43
2021/04/07 09:30:44;;;;;;;;;;;26.80;68.80;;;;;;4112767;28;19925;-43
2021/04/07 09:32:46;;;;;;;;;;;26.80;69.00;;;;;;4114832;28;19941;-43
2021/04/07 09:34:48;;;;;;;;;;;26.80;69.00;;;;;;4113951;28;19960;-44
2021/04/07 09:36:50;;;;;;;;;;;26.90;69.30;;;;;;4108541;28;19929;-44
2021/04/07 09:38:53;;;;;;;;;;;26.90;69.20;;;;;;4114695;28;19953;-48
2021/04/07 09:41:22;;;;;;;;;;;26.90;69.30;;;;;;4115538;28;20364;-46
2021/04/07 09:43:24;;;;;;;;;;;26.90;69.30;;;;;;4110015;28;20360;-42
2021/04/07 09:45:27;;;;;;;;;;;26.80;69.30;;;;;;4111392;28;19965;-43
2021/04/07 09:47:29;;;;;;;;;;;26.80;68.40;;;;;;4119802;28;20414;-43
2021/04/07 09:49:32;;;;;;;;;;;26.80;67.90;;;;;;4114996;28;20253;-43
2021/04/07 09:51:37;;;;;;;;;;;26.80;67.70;;;;;;4118867;28;19925;-42
2021/04/07 09:53:38;;;;;;;;;;;26.70;67.60;;;;;;4121472;28;19976;-42
2021/04/07 09:55:40;;;;;;;;;;;26.70;67.70;;;;;;4118195;28;19918;-42
2021/04/07 09:57:41;;;;;;;;;;;26.60;67.70;;;;;;4114843;28;19992;-43
2021/04/07 09:59:47;;;;;;;;;;;26.60;67.80;;;;;;4118632;28;20349;-45
2021/04/07 10:01:48;;;;;;;;;;;26.60;67.90;;;;;;4116022;28;19926;-44
2021/04/07 10:03:53;;;;;;;;;;;26.50;67.90;;;;;;4114825;28;19924;-43
2021/04/07 10:05:54;;;;;;;;;;;26.50;68.00;;;;;;4114384;28;19955;-44
2021/04/07 10:08:15;;;;;;;;;;;26.50;68.10;;;;;;4112970;28;20365;-44
2021/04/07 10:10:17;;;;;;;;;;;26.40;68.10;;;;;;4113543;28;19914;-48
2021/04/07 10:12:20;;;;;;;;;;;26.50;68.40;;;;;;4110224;28;19921;-42
2021/04/07 10:14:21;;;;;;;;;;;26.40;68.70;;;;;;4112589;28;19909;-44
2021/04/07 10:16:23;;;;;;;;;;;26.40;68.90;;;;;;4106759;28;19921;-46
2021/04/07 10:18:26;;;;;;;;;;;26.40;69.20;;;;;;4114345;28;19925;-43
2021/04/07 10:20:29;;;;;;;;;;;26.40;69.30;;;;;;4110526;28;20368;-46
2021/04/07 10:22:31;;;;;;;;;;;26.40;69.50;;;;;;4112317;28;20292;-46
2021/04/07 10:24:36;;;;;;;;;;;26.50;69.50;;;;;;4113529;28;20275;-44
2021/04/07 10:26:44;;;;;;;;;;;26.50;69.60;;;;;;4117082;28;20753;-43
2021/04/07 10:28:55;;;;;;;;;;;26.50;69.70;;;;;;4112211;28;19921;-42
2021/04/07 10:30:57;;;;;;;;;;;26.50;69.80;;;;;;4115193;28;19918;-42
2021/04/07 10:32:59;;;;;;;;;;;26.50;69.70;;;;;;4115256;28;19985;-45
2021/04/07 10:35:00;;;;;;;;;;;26.50;69.60;;;;;;4115424;28;19921;-43
2021/04/07 10:37:03;;;;;;;;;;;26.50;69.70;;;;;;4114156;28;19917;-45
2021/04/07 10:39:14;;;;;;;;;;;26.40;69.70;;;;;;4114289;28;19921;-42
2021/04/07 10:41:15;;;;;;;;;;;26.40;69.90;;;;;;4112353;28;19953;-44
2021/04/07 10:43:20;;;;;;;;;;;26.40;70.10;;;;;;4116199;28;19941;-45
2021/04/07 10:45:23;;;;;;;;;;;26.30;70.00;;;;;;4113769;28;20271;-42
2021/04/07 10:47:25;;;;;;;;;;;26.30;70.20;;;;;;4116806;28;20128;-42
2021/04/07 10:49:27;;;;;;;;;;;26.30;70.20;;;;;;4113369;28;20089;-46
2021/04/07 10:51:29;;;;;;;;;;;26.30;70.30;;;;;;4114870;28;19921;-42
2021/04/07 10:53:38;;;;;;;;;;;26.30;70.40;;;;;;4115559;28;20024;-41
2021/04/07 10:55:40;;;;;;;;;;;26.30;70.40;;;;;;4114407;28;19917;-45
2021/04/07 10:57:45;;;;;;;;;;;26.30;70.60;;;;;;4115225;28;20334;-42
2021/04/07 10:59:46;;;;;;;;;;;26.30;70.60;;;;;;4115971;28;19913;-41
2021/04/07 11:01:48;;;;;;;;;;;26.30;70.60;;;;;;4113213;28;20628;-45
2021/04/07 11:03:49;;;;;;;;;;;26.30;70.70;;;;;;4109656;28;20319;-43
2021/04/07 11:05:51;;;;;;;;;;;26.30;70.70;;;;;;4112694;28;19914;-45
2021/04/07 11:08:00;;;;;;;;;;;26.30;70.80;;;;;;4115918;28;20000;-43
2021/04/07 11:10:01;;;;;;;;;;;26.30;70.70;;;;;;4112697;28;19929;-48
2021/04/07 11:12:06;;;;;;;;;;;26.30;70.70;;;;;;4113292;28;19928;-45
2021/04/07 11:14:10;;;;;;;;;;;26.30;70.70;;;;;;4115383;28;19967;-48
2021/04/07 11:16:12;;;;;;;;;;;26.30;70.70;;;;;;4116943;28;20331;-46
2021/04/07 11:18:14;;;;;;;;;;;26.30;70.70;;;;;;4112115;28;19960;-43
2021/04/07 11:20:16;;;;;;;;;;;26.30;70.80;;;;;;4116797;28;19910;-47
2021/04/07 11:22:17;;;;;;;;;;;26.30;70.80;;;;;;4114748;28;19922;-42
2021/04/07 11:24:19;;;;;;;;;;;26.30;70.70;;;;;;4113170;28;20236;-47
2021/04/07 11:26:20;;;;;;;;;;;26.30;70.80;;;;;;4116314;28;19921;-47
2021/04/07 11:28:22;;;;;;;;;;;26.30;70.80;;;;;;4115177;28;20021;-49
2021/04/07 11:30:25;;;;;;;;;;;26.30;70.80;;;;;;4109567;28;20339;-48
2021/04/07 11:32:28;;;;;;;;;;;26.30;71.00;;;;;;4113323;28;19913;-48
2021/04/07 11:34:38;;;;;;;;;;;26.30;70.90;;;;;;4113354;28;19993;-47
2021/04/07 11:36:58;;;;;;;;;;;26.20;70.90;;;;;;4111510;28;19925;-46
2021/04/07 11:45:16;;;;;;;;;;;26.30;71.00;;;;;;4113883;28;19914;-45
2021/04/07 11:47:17;;;;;;;;;;;26.30;71.00;;;;;;4113179;28;20252;-44
2021/04/07 11:49:19;;;;;;;;;;;26.20;71.00;;;;;;4111342;28;19922;-46
2021/04/07 11:51:20;;;;;;;;;;;26.20;71.00;;;;;;4112612;28;19921;-46
2021/04/07 11:53:22;;;;;;;;;;;26.20;71.00;;;;;;4112808;28;19916;-43
2021/04/07 11:55:24;;;;;;;;;;;26.20;71.00;;;;;;4105144;28;20492;-44
2021/04/07 11:57:25;;;;;;;;;;;26.20;71.00;;;;;;4107136;28;20775;-47
2021/04/07 11:59:27;;;;;;;;;;;26.20;71.00;;;;;;4110605;28;20002;-50